createdAt,value
2017-08-14T00:02:21.045Z,17.17
2017-08-14T00:04:48.567Z,18.40
2017-08-14T00:07:16.116Z,18.20
2017-08-14T00:09:43.651Z,23.20
2017-08-14T00:12:11.178Z,23.83
2017-08-14T00:14:39.110Z,18.20
2017-08-14T00:17:06.664Z,21.10
2017-08-14T00:19:34.172Z,19.13
2017-08-14T00:22:01.718Z,20.80
2017-08-14T00:24:29.227Z,21.73
2017-08-14T00:26:56.751Z,24.60
2017-08-14T00:29:25.073Z,20.10
2017-08-14T00:31:52.579Z,20.90
2017-08-14T00:34:20.095Z,22.13
2017-08-14T00:36:47.624Z,20.97
2017-08-14T00:39:15.145Z,21.07
2017-08-14T00:41:42.770Z,21.33
2017-08-14T00:44:10.619Z,16.70
2017-08-14T00:46:38.128Z,23.20
2017-08-14T00:49:05.632Z,18.87
2017-08-14T00:51:33.183Z,20.97
2017-08-14T00:54:00.706Z,27.63
2017-08-14T00:56:28.212Z,16.67
2017-08-14T00:58:55.743Z,17.67
2017-08-14T01:01:24.034Z,18.43
2017-08-14T01:03:51.554Z,17.50
2017-08-14T01:06:19.097Z,27.10
2017-08-14T01:08:46.618Z,19.43
2017-08-14T01:11:14.209Z,16.43
2017-08-14T01:13:41.743Z,16.30
2017-08-14T01:16:09.312Z,17.53
2017-08-14T01:18:36.822Z,19.27
2017-08-14T01:21:05.133Z,22.73
2017-08-14T01:23:32.706Z,17.50
2017-08-14T01:26:00.227Z,14.07
2017-08-14T01:28:28.518Z,17.57
2017-08-14T01:30:56.020Z,16.90
2017-08-14T01:33:23.527Z,18.07
2017-08-14T01:35:51.054Z,21.40
2017-08-14T01:38:18.651Z,14.07
2017-08-14T01:40:46.235Z,19.10
2017-08-14T01:43:13.784Z,15.57
2017-08-14T01:45:41.302Z,19.13
2017-08-14T01:48:08.835Z,23.13
2017-08-14T01:50:36.339Z,17.83
2017-08-14T01:53:04.646Z,15.13
2017-08-14T01:55:32.198Z,18.30
2017-08-14T01:57:59.721Z,19.27
2017-08-14T02:00:27.992Z,17.77
2017-08-14T02:02:55.533Z,18.73
2017-08-14T02:05:23.049Z,17.20
2017-08-14T02:07:50.582Z,19.40
2017-08-14T02:10:18.897Z,20.57
2017-08-14T02:12:46.398Z,25.20
2017-08-14T02:15:13.903Z,19.97
2017-08-14T02:17:41.435Z,20.73
2017-08-14T02:20:09.740Z,21.40
2017-08-14T02:22:37.262Z,21.67
2017-08-14T02:25:05.574Z,33.60
2017-08-14T02:27:33.097Z,21.33
2017-08-14T02:30:01.383Z,26.07
2017-08-14T02:32:28.916Z,23.03
2017-08-14T02:34:56.429Z,21.97
2017-08-14T02:37:23.989Z,29.17
2017-08-14T02:39:51.519Z,25.00
2017-08-14T02:42:19.105Z,26.03
2017-08-14T02:44:46.607Z,24.60
2017-08-14T02:47:14.140Z,23.93
2017-08-14T02:49:41.643Z,25.20
2017-08-14T02:52:09.149Z,27.23
2017-08-14T02:54:36.786Z,23.60
2017-08-14T02:57:04.301Z,21.00
2017-08-14T02:59:32.585Z,20.93
2017-08-14T03:02:00.925Z,25.33
2017-08-14T03:04:28.434Z,23.97
2017-08-14T03:06:55.953Z,28.67
2017-08-14T03:09:23.498Z,25.27
2017-08-14T03:11:51.018Z,26.30
2017-08-14T03:14:18.523Z,26.80
2017-08-14T03:16:46.122Z,23.73
2017-08-14T03:19:13.660Z,22.77
2017-08-14T03:21:41.936Z,23.20
2017-08-14T03:24:10.246Z,26.23
2017-08-14T03:26:37.770Z,22.07
2017-08-14T03:29:06.047Z,23.50
2017-08-14T03:31:34.365Z,21.07
2017-08-14T03:34:01.932Z,24.70
2017-08-14T03:36:29.435Z,23.27
2017-08-14T03:38:57.050Z,24.43
2017-08-14T03:41:24.573Z,21.03
2017-08-14T03:43:52.843Z,27.20
2017-08-14T03:46:21.163Z,22.23
2017-08-14T03:48:48.671Z,23.57
2017-08-14T03:51:16.961Z,23.37
2017-08-14T03:53:45.274Z,22.20
2017-08-14T03:56:12.779Z,32.17
2017-08-14T03:58:41.104Z,23.30
2017-08-14T04:01:08.649Z,25.27
2017-08-14T04:03:36.152Z,23.03
2017-08-14T04:06:03.674Z,24.13
2017-08-14T04:08:31.198Z,21.47
2017-08-14T04:10:59.515Z,26.77
2017-08-14T04:13:27.035Z,19.97
2017-08-14T04:15:55.331Z,21.30
2017-08-14T04:18:22.909Z,23.73
2017-08-14T04:20:50.411Z,21.30
2017-08-14T04:23:18.031Z,24.40
2017-08-14T04:25:45.561Z,21.57
2017-08-14T04:28:13.077Z,22.73
2017-08-14T04:30:40.607Z,18.67
2017-08-14T04:33:08.115Z,23.07
2017-08-14T04:35:36.400Z,20.23
2017-08-14T04:38:04.696Z,20.93
2017-08-14T04:40:32.218Z,20.77
2017-08-14T04:42:59.723Z,19.13
2017-08-14T04:45:27.269Z,20.40
2017-08-14T04:47:54.775Z,19.37
2017-08-14T04:50:22.293Z,15.50
2017-08-14T04:52:49.842Z,16.33
2017-08-14T04:55:17.353Z,12.57
2017-08-14T04:57:44.866Z,16.40
2017-08-14T05:00:12.418Z,11.50
2017-08-14T05:02:39.938Z,10.23
2017-08-14T05:05:07.470Z,13.07
2017-08-14T05:07:35.014Z,12.37
2017-08-14T05:10:02.516Z,11.70
2017-08-14T05:12:30.015Z,13.83
2017-08-14T05:14:57.578Z,13.37
2017-08-14T05:17:25.149Z,17.17
2017-08-14T05:19:52.674Z,17.87
2017-08-14T05:22:20.963Z,16.43
2017-08-14T05:24:48.464Z,16.60
2017-08-14T05:27:15.968Z,26.10
2017-08-14T05:29:43.504Z,29.17
2017-08-14T05:32:11.007Z,17.93
2017-08-14T05:34:38.526Z,25.73
2017-08-14T05:37:06.838Z,20.80
2017-08-14T05:39:34.358Z,23.03
2017-08-14T05:42:01.861Z,21.07
2017-08-14T05:44:29.391Z,17.67
2017-08-14T05:46:57.702Z,19.87
2017-08-14T05:49:25.216Z,21.60
2017-08-14T05:51:52.773Z,20.27
2017-08-14T05:54:21.042Z,23.77
2017-08-14T05:56:48.559Z,25.10
2017-08-14T05:59:16.112Z,21.37
2017-08-14T06:01:43.612Z,19.10
2017-08-14T06:04:11.121Z,19.97
2017-08-14T06:06:38.690Z,22.50
2017-08-14T06:09:06.210Z,15.80
2017-08-14T06:11:34.485Z,20.43
2017-08-14T06:14:02.789Z,12.80
2017-08-14T06:16:30.287Z,16.47
2017-08-14T06:18:57.789Z,20.93
2017-08-14T06:21:25.311Z,13.90
2017-08-14T06:23:52.803Z,10.83
2017-08-14T06:26:21.060Z,9.17
2017-08-14T06:28:49.343Z,8.43
2017-08-14T06:31:17.603Z,9.40
2017-08-14T06:33:45.102Z,10.03
2017-08-14T06:36:12.619Z,9.73
2017-08-14T06:38:40.115Z,10.03
2017-08-14T06:41:07.607Z,7.43
2017-08-14T06:43:35.250Z,9.40
2017-08-14T06:46:02.807Z,10.30
2017-08-14T06:48:30.303Z,8.13
2017-08-14T06:50:57.841Z,13.90
2017-08-14T06:53:25.349Z,8.30
2017-08-14T06:55:53.612Z,11.83
2017-08-14T06:58:21.935Z,6.20
2017-08-14T07:00:49.495Z,7.40
2017-08-14T07:03:16.983Z,7.70
2017-08-14T07:05:44.522Z,5.20
2017-08-14T07:08:12.043Z,12.13
2017-08-14T07:10:39.547Z,6.10
2017-08-14T07:13:07.068Z,5.70
2017-08-14T07:15:35.348Z,4.13
2017-08-14T07:18:02.857Z,4.30
2017-08-14T07:20:30.384Z,4.37
2017-08-14T07:22:57.884Z,16.60
2017-08-14T07:25:25.498Z,3.60
2017-08-14T07:27:53.028Z,5.07
2017-08-14T07:30:20.615Z,3.43
2017-08-14T07:32:48.113Z,4.37
2017-08-14T07:35:15.646Z,6.50
2017-08-14T07:37:43.146Z,9.23
2017-08-14T07:40:11.403Z,4.27
2017-08-14T07:42:38.942Z,5.03
2017-08-14T07:45:06.435Z,3.43
2017-08-14T07:47:34.743Z,7.77
2017-08-14T07:50:02.285Z,4.97
2017-08-14T07:52:30.643Z,2.57
2017-08-14T07:54:58.155Z,3.43
2017-08-14T07:57:25.675Z,3.00
2017-08-14T07:59:53.953Z,2.13
2017-08-14T08:02:22.365Z,1.83
2017-08-14T08:04:49.908Z,2.53
2017-08-14T08:07:17.404Z,2.33
2017-08-14T08:09:44.904Z,1.80
2017-08-14T08:12:13.200Z,1.87
2017-08-14T08:14:40.706Z,2.80
2017-08-14T08:17:08.222Z,2.23
2017-08-14T08:19:35.744Z,3.10
2017-08-14T08:22:04.012Z,2.57
2017-08-14T08:24:31.531Z,1.70
2017-08-14T08:26:59.065Z,5.17
2017-08-14T08:29:26.582Z,1.70
2017-08-14T08:31:54.097Z,2.00
2017-08-14T08:34:21.619Z,2.77
2017-08-14T08:36:49.894Z,1.70
2017-08-14T08:39:18.210Z,2.10
2017-08-14T08:41:45.754Z,1.90
2017-08-14T08:44:13.279Z,1.90
2017-08-14T08:46:40.791Z,2.30
2017-08-14T08:49:08.333Z,3.30
2017-08-14T08:51:35.900Z,1.93
2017-08-14T08:54:03.426Z,2.27
2017-08-14T08:56:31.724Z,1.90
2017-08-14T08:58:59.224Z,2.50
2017-08-14T09:01:26.715Z,2.77
2017-08-14T09:03:54.242Z,1.80
2017-08-14T09:06:21.744Z,3.63
2017-08-14T09:08:49.240Z,1.93
2017-08-14T09:11:16.776Z,5.67
2017-08-14T09:13:44.276Z,2.33
2017-08-14T09:16:11.767Z,2.73
2017-08-14T09:18:39.289Z,2.37
2017-08-14T09:21:06.783Z,3.30
2017-08-14T09:23:34.275Z,10.47
2017-08-14T09:26:01.804Z,4.80
2017-08-14T09:28:29.333Z,2.03
2017-08-14T09:30:57.627Z,1.93
2017-08-14T09:33:25.915Z,1.90
2017-08-14T09:35:53.438Z,2.50
2017-08-14T09:38:20.940Z,7.20
2017-08-14T09:40:48.472Z,2.00
2017-08-14T09:43:16.731Z,3.93
2017-08-14T09:45:44.252Z,2.40
2017-08-14T09:48:11.793Z,3.67
2017-08-14T09:50:39.371Z,1.80
2017-08-14T09:53:06.863Z,4.37
2017-08-14T09:55:34.384Z,2.70
2017-08-14T09:58:01.894Z,1.93
2017-08-14T10:00:29.410Z,3.60
2017-08-14T10:02:56.960Z,2.17
2017-08-14T10:05:24.473Z,1.87
2017-08-14T10:07:52.739Z,1.93
2017-08-14T10:10:20.291Z,2.30
2017-08-14T10:12:47.822Z,3.43
2017-08-14T10:15:15.320Z,2.33
2017-08-14T10:17:42.929Z,3.63
2017-08-14T10:20:10.427Z,2.30
2017-08-14T10:22:37.949Z,2.53
2017-08-14T10:25:05.494Z,3.10
2017-08-14T10:27:33.010Z,3.33
2017-08-14T10:30:00.522Z,2.23
2017-08-14T10:32:28.049Z,2.47
2017-08-14T10:34:56.312Z,1.90
2017-08-14T10:37:23.815Z,5.57
2017-08-14T10:39:51.354Z,2.50
2017-08-14T10:42:18.869Z,2.33
2017-08-14T10:44:46.369Z,2.23
2017-08-14T10:47:13.910Z,4.73
2017-08-14T10:49:42.223Z,1.87
2017-08-14T10:52:09.781Z,2.50
2017-08-14T10:54:37.317Z,3.87
2017-08-14T10:57:04.829Z,2.57
2017-08-14T10:59:32.342Z,2.40
2017-08-14T11:01:59.915Z,2.97
2017-08-14T11:04:27.426Z,1.90
2017-08-14T11:06:55.033Z,2.20
2017-08-14T11:09:22.574Z,5.87
2017-08-14T11:11:50.078Z,2.27
2017-08-14T11:14:17.576Z,3.40
2017-08-14T11:16:45.882Z,2.00
2017-08-14T11:19:13.443Z,3.33
2017-08-14T11:21:40.940Z,4.30
2017-08-14T11:24:08.464Z,2.87
2017-08-14T11:26:35.973Z,2.60
2017-08-14T11:29:04.265Z,3.67
2017-08-14T11:31:32.563Z,2.20
2017-08-14T11:34:00.073Z,3.50
2017-08-14T11:36:27.600Z,2.63
2017-08-14T11:38:55.124Z,4.53
2017-08-14T11:41:22.639Z,3.50
2017-08-14T11:43:50.198Z,2.10
2017-08-14T11:46:17.749Z,2.30
2017-08-14T11:48:45.257Z,5.77
2017-08-14T11:51:12.747Z,3.17
2017-08-14T11:53:40.281Z,2.70
2017-08-14T11:56:07.780Z,2.17
2017-08-14T11:58:35.271Z,2.80
2017-08-14T12:01:03.586Z,2.50
2017-08-14T12:03:31.108Z,2.53
2017-08-14T12:05:59.368Z,2.53
2017-08-14T12:08:26.896Z,2.37
2017-08-14T12:10:54.407Z,3.50
2017-08-14T12:13:22.672Z,2.70
2017-08-14T12:15:50.977Z,7.13
2017-08-14T12:18:18.468Z,5.30
2017-08-14T12:20:45.990Z,2.27
2017-08-14T12:23:13.529Z,2.30
2017-08-14T12:25:41.792Z,1.90
2017-08-14T12:28:09.315Z,2.03
2017-08-14T12:30:36.854Z,2.17
2017-08-14T12:33:04.351Z,2.07
2017-08-14T12:35:31.848Z,3.13
2017-08-14T12:37:59.436Z,2.23
2017-08-14T12:40:26.940Z,3.17
2017-08-14T12:42:54.450Z,2.00
2017-08-14T12:45:21.994Z,2.50
2017-08-14T12:47:49.496Z,2.50
2017-08-14T12:50:17.009Z,6.70
2017-08-14T12:52:44.559Z,1.80
2017-08-14T12:55:12.055Z,3.33
2017-08-14T12:57:39.552Z,2.93
2017-08-14T13:00:07.848Z,2.73
2017-08-14T13:02:35.366Z,2.20
2017-08-14T13:05:02.886Z,2.17
2017-08-14T13:07:30.412Z,4.13
2017-08-14T13:09:58.675Z,2.80
2017-08-14T13:12:26.190Z,5.00
2017-08-14T13:14:53.742Z,5.13
2017-08-14T13:17:21.259Z,3.83
2017-08-14T13:19:49.577Z,4.47
2017-08-14T13:22:17.100Z,2.87
2017-08-14T13:24:45.389Z,3.00
2017-08-14T13:27:12.888Z,3.57
2017-08-14T13:29:40.423Z,2.20
2017-08-14T13:32:07.942Z,2.43
2017-08-14T13:34:36.203Z,2.60
2017-08-14T13:37:03.728Z,3.00
2017-08-14T13:39:31.268Z,2.20
2017-08-14T13:41:58.771Z,2.10
2017-08-14T13:44:26.314Z,3.70
2017-08-14T13:46:53.855Z,2.43
2017-08-14T13:49:21.370Z,2.20
2017-08-14T13:51:49.659Z,2.10
2017-08-14T13:54:17.916Z,2.50
2017-08-14T13:56:45.527Z,2.07
2017-08-14T13:59:13.065Z,2.33
2017-08-14T14:01:40.573Z,8.73
2017-08-14T14:04:08.101Z,1.87
2017-08-14T14:06:35.656Z,4.30
2017-08-14T14:09:03.166Z,6.60
2017-08-14T14:11:30.682Z,4.23
2017-08-14T14:13:58.223Z,4.40
2017-08-14T14:16:25.720Z,7.73
2017-08-14T14:18:53.229Z,2.30
2017-08-14T14:21:20.765Z,11.33
2017-08-14T14:23:49.041Z,4.27
2017-08-14T14:26:17.300Z,3.57
2017-08-14T14:28:44.821Z,9.80
2017-08-14T14:31:12.329Z,3.30
2017-08-14T14:33:39.837Z,2.87
2017-08-14T14:36:07.375Z,4.00
2017-08-14T14:38:34.880Z,8.00
2017-08-14T14:41:02.372Z,1.70
2017-08-14T14:43:30.683Z,1.60
2017-08-14T14:45:59.165Z,1.40
2017-08-14T14:48:26.725Z,1.87
2017-08-14T14:50:54.282Z,1.73
2017-08-14T14:53:21.789Z,7.73
2017-08-14T14:55:49.298Z,1.90
2017-08-14T14:58:16.839Z,1.83
2017-08-14T15:00:44.349Z,4.63
2017-08-14T15:03:11.857Z,5.23
2017-08-14T15:05:39.383Z,1.50
2017-08-14T15:08:06.883Z,2.20
2017-08-14T15:10:34.397Z,2.10
2017-08-14T15:13:01.937Z,2.80
2017-08-14T15:15:29.466Z,1.70
2017-08-14T15:17:56.978Z,4.63
2017-08-14T15:20:24.514Z,6.93
2017-08-14T15:22:52.029Z,4.70
2017-08-14T15:25:19.541Z,8.80
2017-08-14T15:27:47.064Z,1.93
2017-08-14T15:30:14.587Z,9.53
2017-08-14T15:32:42.861Z,2.60
2017-08-14T15:35:11.162Z,8.43
2017-08-14T15:37:38.729Z,2.17
2017-08-14T15:40:06.223Z,1.70
2017-08-14T15:42:33.758Z,2.10
2017-08-14T15:45:01.264Z,5.80
2017-08-14T15:47:29.527Z,1.93
2017-08-14T15:49:57.137Z,4.00
2017-08-14T15:52:24.631Z,2.27
2017-08-14T15:54:52.147Z,3.23
2017-08-14T15:57:19.676Z,2.93
2017-08-14T15:59:47.932Z,2.60
2017-08-14T16:02:15.427Z,6.40
2017-08-14T16:04:42.943Z,2.40
2017-08-14T16:07:10.453Z,6.53
2017-08-14T16:09:37.951Z,3.00
2017-08-14T16:12:05.467Z,2.30
2017-08-14T16:14:33.038Z,2.10
2017-08-14T16:17:00.546Z,2.63
2017-08-14T16:19:45.878Z,2.73
2017-08-14T16:22:13.395Z,4.20
2017-08-14T16:24:41.674Z,2.73
2017-08-14T16:27:09.960Z,1.90
2017-08-14T16:29:37.490Z,2.53
2017-08-14T16:32:04.983Z,3.27
2017-08-14T16:34:32.522Z,2.10
2017-08-14T16:37:00.822Z,2.07
2017-08-14T16:39:28.312Z,1.87
2017-08-14T16:41:55.853Z,2.73
2017-08-14T16:44:23.367Z,2.50
2017-08-14T16:46:51.654Z,2.17
2017-08-14T16:49:20.063Z,2.03
2017-08-14T16:51:47.559Z,2.40
2017-08-14T16:54:15.051Z,2.23
2017-08-14T16:56:42.572Z,2.70
2017-08-14T16:59:10.198Z,3.30
2017-08-14T17:01:37.696Z,5.77
2017-08-14T17:04:05.234Z,8.03
2017-08-14T17:06:32.771Z,2.27
2017-08-14T17:09:00.282Z,5.47
2017-08-14T17:11:28.575Z,2.87
2017-08-14T17:13:56.840Z,2.30
2017-08-14T17:16:25.099Z,3.60
2017-08-14T17:18:52.623Z,10.63
2017-08-14T17:21:20.120Z,5.87
2017-08-14T17:23:47.620Z,5.27
2017-08-14T17:26:15.153Z,4.20
2017-08-14T17:28:43.430Z,2.40
2017-08-14T17:31:11.687Z,2.87
2017-08-14T17:33:39.300Z,4.10
2017-08-14T17:36:06.796Z,7.17
2017-08-14T17:38:34.315Z,3.20
2017-08-14T17:41:01.877Z,7.33
2017-08-14T17:43:29.390Z,3.63
2017-08-14T17:45:57.657Z,6.00
2017-08-14T17:48:25.186Z,3.10
2017-08-14T17:50:52.685Z,6.90
2017-08-14T17:53:20.968Z,7.73
2017-08-14T17:55:49.251Z,2.83
2017-08-14T17:58:17.553Z,2.43
2017-08-14T18:00:45.046Z,3.00
2017-08-14T18:03:12.558Z,3.83
2017-08-14T18:05:40.084Z,4.37
2017-08-14T18:08:08.373Z,3.57
2017-08-14T18:10:36.654Z,6.17
2017-08-14T18:13:04.962Z,7.57
2017-08-14T18:15:32.481Z,9.53
2017-08-14T18:18:00.792Z,4.60
2017-08-14T18:20:28.299Z,4.63
2017-08-14T18:22:55.806Z,3.77
2017-08-14T18:25:23.324Z,8.07
2017-08-14T18:27:51.598Z,5.13
2017-08-14T18:30:19.206Z,7.97
2017-08-14T18:32:46.750Z,13.33
2017-08-14T18:35:14.328Z,2.83
2017-08-14T18:37:41.838Z,2.97
2017-08-14T18:40:10.124Z,13.30
2017-08-14T18:42:38.392Z,3.57
2017-08-14T18:45:06.669Z,4.67
2017-08-14T18:47:34.966Z,27.30
2017-08-14T18:50:02.546Z,52.90
2017-08-14T18:52:30.091Z,40.33
2017-08-14T18:54:57.596Z,46.80
2017-08-14T18:57:25.114Z,28.77
2017-08-14T18:59:52.638Z,19.83
2017-08-14T19:02:20.908Z,13.10
2017-08-14T19:04:49.229Z,19.87
2017-08-14T19:07:16.773Z,14.47
2017-08-14T19:09:45.672Z,10.43
2017-08-14T19:12:12.619Z,8.03
2017-08-14T19:14:40.119Z,6.77
2017-08-14T19:17:07.648Z,10.20
2017-08-14T19:19:35.163Z,11.47
2017-08-14T19:22:03.441Z,19.47
2017-08-14T19:24:31.741Z,17.67
2017-08-14T19:26:59.312Z,20.17
2017-08-14T19:29:26.836Z,9.93
2017-08-14T19:31:55.100Z,9.33
2017-08-14T19:34:23.386Z,6.00
2017-08-14T19:36:51.659Z,4.23
2017-08-14T19:39:19.924Z,4.37
2017-08-14T19:41:47.535Z,12.00
2017-08-14T19:44:15.032Z,4.13
2017-08-14T19:46:42.651Z,3.83
2017-08-14T19:49:10.168Z,5.30
2017-08-14T19:51:38.446Z,3.90
2017-08-14T19:54:06.762Z,5.13
2017-08-14T19:56:34.323Z,7.47
2017-08-14T19:59:01.816Z,6.77
2017-08-14T20:01:29.337Z,6.80
2017-08-14T20:03:56.851Z,6.47
2017-08-14T20:06:24.349Z,4.10
2017-08-14T20:08:51.839Z,6.03
2017-08-14T20:11:19.472Z,5.93
2017-08-14T20:13:46.974Z,5.43
2017-08-14T20:16:14.470Z,5.20
2017-08-14T20:18:42.010Z,5.17
2017-08-14T20:21:10.290Z,8.07
2017-08-14T20:23:38.570Z,5.10
2017-08-14T20:26:06.876Z,6.70
2017-08-14T20:28:34.376Z,5.67
2017-08-14T20:31:01.919Z,5.90
2017-08-14T20:33:29.427Z,4.77
2017-08-14T20:35:56.924Z,6.37
2017-08-14T20:38:24.451Z,4.83
2017-08-14T20:40:51.958Z,5.87
2017-08-14T20:43:19.455Z,4.77
2017-08-14T20:45:46.991Z,10.87
2017-08-14T20:48:14.528Z,12.10
2017-08-14T20:50:42.066Z,7.33
2017-08-14T20:53:09.596Z,11.23
2017-08-14T20:55:37.112Z,8.13
2017-08-14T20:58:04.655Z,15.87
2017-08-14T21:00:32.221Z,3.83
2017-08-14T21:02:59.735Z,7.43
2017-08-14T21:05:27.340Z,8.13
2017-08-14T21:07:54.848Z,15.30
2017-08-14T21:10:22.391Z,12.80
2017-08-14T21:12:49.917Z,5.30
2017-08-14T21:15:17.434Z,9.83
2017-08-14T21:17:45.855Z,10.03
2017-08-14T21:20:13.385Z,5.50
2017-08-14T21:22:41.658Z,6.67
2017-08-14T21:25:09.963Z,5.53
2017-08-14T21:27:37.460Z,4.30
2017-08-14T21:30:04.972Z,4.23
2017-08-14T21:32:32.515Z,8.40
2017-08-14T21:35:00.011Z,4.33
2017-08-14T21:37:27.508Z,4.73
2017-08-14T21:39:55.057Z,4.30
2017-08-14T21:42:22.564Z,6.33
2017-08-14T21:44:50.091Z,6.33
2017-08-14T21:47:18.403Z,6.90
2017-08-14T21:49:45.913Z,10.07
2017-08-14T21:52:13.407Z,6.50
2017-08-14T21:54:40.940Z,4.50
2017-08-14T21:57:10.080Z,5.83
2017-08-14T21:59:37.593Z,4.33
2017-08-14T22:02:05.913Z,5.43
2017-08-14T22:04:33.426Z,4.10
2017-08-14T22:07:01.687Z,4.03
2017-08-14T22:09:29.229Z,6.13
2017-08-14T22:11:56.737Z,5.50
2017-08-14T22:14:25.014Z,3.70
2017-08-14T22:16:52.531Z,6.13
2017-08-14T22:19:20.037Z,4.30
2017-08-14T22:21:47.546Z,3.90
2017-08-14T22:24:15.063Z,4.00
2017-08-14T22:26:42.559Z,6.07
2017-08-14T22:29:10.051Z,3.97
2017-08-14T22:31:38.350Z,6.20
2017-08-14T22:34:05.847Z,5.77
2017-08-14T22:36:33.357Z,4.03
2017-08-14T22:39:00.898Z,5.47
2017-08-14T22:41:29.174Z,8.10
2017-08-14T22:43:57.435Z,10.97
2017-08-14T22:46:24.955Z,11.60
2017-08-14T22:48:52.515Z,9.80
2017-08-14T22:51:20.041Z,4.97
2017-08-14T22:53:47.559Z,17.33
2017-08-14T22:56:15.075Z,4.90
2017-08-14T22:58:42.573Z,3.30
2017-08-14T23:01:10.086Z,11.93
2017-08-14T23:03:37.659Z,5.63
2017-08-14T23:06:05.155Z,18.20
2017-08-14T23:08:32.649Z,7.13
2017-08-14T23:11:00.182Z,3.63
2017-08-14T23:13:27.693Z,5.57
2017-08-14T23:15:55.201Z,7.07
2017-08-14T23:18:23.492Z,3.40
2017-08-14T23:20:51.800Z,3.00
2017-08-14T23:23:19.358Z,2.83
2017-08-14T23:25:46.889Z,3.40
2017-08-14T23:28:15.164Z,4.20
2017-08-14T23:30:42.677Z,5.40
2017-08-14T23:33:10.312Z,5.90
2017-08-14T23:35:37.821Z,7.73
2017-08-14T23:38:05.330Z,9.53
2017-08-14T23:40:32.852Z,6.90
2017-08-14T23:43:01.113Z,7.30
2017-08-14T23:45:28.602Z,3.30
2017-08-14T23:47:56.184Z,5.30
2017-08-14T23:50:23.680Z,2.97
2017-08-14T23:52:51.300Z,3.33
2017-08-14T23:55:18.838Z,2.63
2017-08-14T23:57:46.418Z,3.20
